createdAt,value
2023-11-05T00:02:08.025Z,969.46
2023-11-05T00:05:14.969Z,969.51
2023-11-05T00:08:21.879Z,969.43
2023-11-05T00:11:29.738Z,969.37
2023-11-05T00:14:37.006Z,969.37
2023-11-05T00:17:45.241Z,969.40
2023-11-05T00:20:52.341Z,969.39
2023-11-05T00:23:59.288Z,969.44
2023-11-05T00:27:06.738Z,969.44
2023-11-05T00:30:14.405Z,969.40
2023-11-05T00:33:22.063Z,969.48
2023-11-05T00:36:30.028Z,969.42
2023-11-05T00:39:37.295Z,969.48
2023-11-05T00:42:44.482Z,969.53
2023-11-05T00:45:51.629Z,969.47
2023-11-05T00:48:58.561Z,969.44
2023-11-05T00:52:05.401Z,969.44
2023-11-05T00:55:13.104Z,969.37
2023-11-05T00:58:19.612Z,969.41
2023-11-05T01:01:27.213Z,969.46
2023-11-05T01:04:34.795Z,969.51
2023-11-05T01:07:42.551Z,969.51
2023-11-05T01:10:50.437Z,969.56
2023-11-05T01:13:57.590Z,969.58
2023-11-05T01:17:07.284Z,969.56
2023-11-05T01:20:14.234Z,969.52
2023-11-05T01:23:21.814Z,969.48
2023-11-05T01:26:28.946Z,969.41
2023-11-05T01:29:36.045Z,969.51
2023-11-05T01:32:43.432Z,969.42
2023-11-05T01:35:49.943Z,969.48
2023-11-05T01:38:56.887Z,969.54
2023-11-05T01:42:03.794Z,969.60
2023-11-05T01:45:12.136Z,969.55
2023-11-05T01:48:19.653Z,969.60
2023-11-05T01:51:26.508Z,969.41
2023-11-05T01:54:34.248Z,969.45
2023-11-05T01:57:41.359Z,969.44
2023-11-05T02:00:48.613Z,969.33
2023-11-05T02:03:55.405Z,969.26
2023-11-05T02:07:02.754Z,969.23
2023-11-05T02:10:09.382Z,969.24
2023-11-05T02:13:16.874Z,969.22
2023-11-05T02:16:24.322Z,969.08
2023-11-05T02:19:31.298Z,969.00
2023-11-05T02:22:38.859Z,968.95
2023-11-05T02:25:45.805Z,968.94
2023-11-05T02:28:53.416Z,968.89
2023-11-05T02:32:00.312Z,968.76
2023-11-05T02:35:07.725Z,968.75
2023-11-05T02:38:14.243Z,968.70
2023-11-05T02:41:21.738Z,968.73
2023-11-05T02:44:29.503Z,968.62
2023-11-05T02:47:36.756Z,968.73
2023-11-05T02:50:44.284Z,968.70
2023-11-05T02:53:51.747Z,968.68
2023-11-05T02:56:58.833Z,968.62
2023-11-05T03:00:06.299Z,968.62
2023-11-05T03:03:13.410Z,968.71
2023-11-05T03:06:20.257Z,968.64
2023-11-05T03:09:27.674Z,968.62
2023-11-05T03:12:34.762Z,968.69
2023-11-05T03:15:41.494Z,968.66
2023-11-05T03:18:49.067Z,968.66
2023-11-05T03:21:56.257Z,968.60
2023-11-05T03:25:03.834Z,968.56
2023-11-05T03:28:10.426Z,968.56
2023-11-05T03:31:17.671Z,968.68
2023-11-05T03:34:24.778Z,968.59
2023-11-05T03:37:32.168Z,968.59
2023-11-05T03:40:39.915Z,968.58
2023-11-05T03:43:46.821Z,968.54
2023-11-05T03:46:54.155Z,968.53
2023-11-05T03:50:01.774Z,968.59
2023-11-05T03:53:08.743Z,968.62
2023-11-05T03:56:15.770Z,968.60
2023-11-05T03:59:23.139Z,968.56
2023-11-05T04:02:30.284Z,968.53
2023-11-05T04:05:37.305Z,968.46
2023-11-05T04:08:44.511Z,968.44
2023-11-05T04:11:51.751Z,968.46
2023-11-05T04:14:59.033Z,968.47
2023-11-05T04:18:06.727Z,968.44
2023-11-05T04:21:14.586Z,968.39
2023-11-05T04:24:22.489Z,968.40
2023-11-05T04:27:29.990Z,968.38
2023-11-05T04:30:36.679Z,968.38
2023-11-05T04:33:44.962Z,968.35
2023-11-05T04:36:52.020Z,968.35
2023-11-05T04:39:58.679Z,968.28
2023-11-05T04:43:06.598Z,968.20
2023-11-05T04:46:13.754Z,968.12
2023-11-05T04:49:21.137Z,968.11
2023-11-05T04:52:28.343Z,968.12
2023-11-05T04:55:35.057Z,968.12
2023-11-05T04:58:42.806Z,968.06
2023-11-05T05:01:50.369Z,968.08
2023-11-05T05:04:57.581Z,968.10
2023-11-05T05:08:04.568Z,968.07
2023-11-05T05:11:11.647Z,968.10
2023-11-05T05:14:19.036Z,968.20
2023-11-05T05:17:25.858Z,968.16
2023-11-05T05:20:33.207Z,968.17
2023-11-05T05:23:40.454Z,968.14
2023-11-05T05:26:47.959Z,968.13
2023-11-05T05:29:55.320Z,968.13
2023-11-05T05:33:02.277Z,968.14
2023-11-05T05:36:09.353Z,968.15
2023-11-05T05:39:16.880Z,968.13
2023-11-05T05:42:23.997Z,968.18
2023-11-05T05:45:30.971Z,968.09
2023-11-05T05:48:38.827Z,968.12
2023-11-05T05:51:45.948Z,968.08
2023-11-05T05:54:53.358Z,968.04
2023-11-05T05:58:00.414Z,968.00
2023-11-05T06:01:08.220Z,967.95
2023-11-05T06:04:15.322Z,967.92
2023-11-05T06:07:22.436Z,967.82
2023-11-05T06:10:30.035Z,967.87
2023-11-05T06:13:37.058Z,967.82
2023-11-05T06:16:44.864Z,967.80
2023-11-05T06:19:51.917Z,967.79
2023-11-05T06:22:59.021Z,967.73
2023-11-05T06:26:06.265Z,967.78
2023-11-05T06:29:13.775Z,967.81
2023-11-05T06:32:21.476Z,967.74
2023-11-05T06:35:28.561Z,967.75
2023-11-05T06:38:36.284Z,967.78
2023-11-05T06:41:43.627Z,967.71
2023-11-05T06:44:50.855Z,967.71
2023-11-05T06:47:58.766Z,967.73
2023-11-05T06:51:05.373Z,967.69
2023-11-05T06:54:12.901Z,967.64
2023-11-05T06:57:20.346Z,967.60
2023-11-05T07:00:27.616Z,967.73
2023-11-05T07:03:35.466Z,967.75
2023-11-05T07:06:43.788Z,967.65
2023-11-05T07:09:50.423Z,967.68
2023-11-05T07:12:57.585Z,967.75
2023-11-05T07:16:04.626Z,967.71
2023-11-05T07:19:11.839Z,967.69
2023-11-05T07:22:19.311Z,967.73
2023-11-05T07:25:26.270Z,967.80
2023-11-05T07:28:33.737Z,967.79
2023-11-05T07:31:40.798Z,967.79
2023-11-05T07:34:49.867Z,967.83
2023-11-05T07:37:56.767Z,967.76
2023-11-05T07:41:04.368Z,967.73
2023-11-05T07:44:12.318Z,967.73
2023-11-05T07:47:19.357Z,967.74
2023-11-05T07:50:26.232Z,967.65
2023-11-05T07:53:33.695Z,967.70
2023-11-05T07:56:40.354Z,967.69
2023-11-05T07:59:48.278Z,967.72
2023-11-05T08:02:56.095Z,967.67
2023-11-05T08:06:03.436Z,967.69
2023-11-05T08:09:10.312Z,967.72
2023-11-05T08:12:17.213Z,967.71
2023-11-05T08:15:24.222Z,967.76
2023-11-05T08:18:31.635Z,967.78
2023-11-05T08:21:38.951Z,967.81
2023-11-05T08:24:46.200Z,967.82
2023-11-05T08:27:53.311Z,967.83
2023-11-05T08:31:01.612Z,967.81
2023-11-05T08:34:08.832Z,967.84
2023-11-05T08:37:15.896Z,967.86
2023-11-05T08:40:23.933Z,967.91
2023-11-05T08:43:32.218Z,967.95
2023-11-05T08:46:39.433Z,967.93
2023-11-05T08:49:47.107Z,967.90
2023-11-05T08:52:54.129Z,967.99
2023-11-05T08:56:01.744Z,967.98
2023-11-05T08:59:08.795Z,968.03
2023-11-05T09:02:16.527Z,967.98
2023-11-05T09:05:23.951Z,968.00
2023-11-05T09:08:31.475Z,967.97
2023-11-05T09:11:38.909Z,967.97
2023-11-05T09:14:45.891Z,967.93
2023-11-05T09:17:53.069Z,967.95
2023-11-05T09:21:00.436Z,967.96
2023-11-05T09:24:07.040Z,967.94
2023-11-05T09:27:14.562Z,968.01
2023-11-05T09:30:21.759Z,968.11
2023-11-05T09:33:28.564Z,968.10
2023-11-05T09:36:35.508Z,968.16
2023-11-05T09:39:42.756Z,968.07
2023-11-05T09:42:50.480Z,968.14
2023-11-05T09:45:58.187Z,968.16
2023-11-05T09:49:04.870Z,968.22
2023-11-05T09:52:11.870Z,968.23
2023-11-05T09:55:19.075Z,968.22
2023-11-05T09:58:25.954Z,968.30
2023-11-05T10:01:32.930Z,968.28
2023-11-05T10:04:39.921Z,968.32
2023-11-05T10:07:47.117Z,968.28
2023-11-05T10:10:54.155Z,968.29
2023-11-05T10:14:01.066Z,968.32
2023-11-05T10:17:08.349Z,968.46
2023-11-05T10:20:15.339Z,968.43
2023-11-05T10:23:22.215Z,968.50
2023-11-05T10:26:29.578Z,968.50
2023-11-05T10:29:36.234Z,968.55
2023-11-05T10:32:43.619Z,968.60
2023-11-05T10:35:50.968Z,968.64
2023-11-05T10:38:57.851Z,968.64
2023-11-05T10:42:05.131Z,968.64
2023-11-05T10:45:12.126Z,968.69
2023-11-05T10:48:19.564Z,968.67
2023-11-05T10:51:26.145Z,968.73
2023-11-05T10:54:33.127Z,968.71
2023-11-05T10:57:40.269Z,968.79
2023-11-05T11:00:46.924Z,968.82
2023-11-05T11:03:54.090Z,968.83
2023-11-05T11:07:01.376Z,968.87
2023-11-05T11:10:08.128Z,968.89
2023-11-05T11:13:15.336Z,968.92
2023-11-05T11:16:22.504Z,968.89
2023-11-05T11:19:29.198Z,968.99
2023-11-05T11:22:36.461Z,968.94
2023-11-05T11:25:43.184Z,968.97
2023-11-05T11:28:50.316Z,969.10
2023-11-05T11:31:57.518Z,969.04
2023-11-05T11:35:04.604Z,969.15
2023-11-05T11:38:11.236Z,969.17
2023-11-05T11:41:18.229Z,969.17
2023-11-05T11:44:25.169Z,969.17
2023-11-05T11:47:31.900Z,969.23
2023-11-05T11:50:40.029Z,969.29
2023-11-05T11:53:47.459Z,969.31
2023-11-05T11:56:54.173Z,969.44
2023-11-05T12:00:01.005Z,969.49
2023-11-05T12:03:08.437Z,969.66
2023-11-05T12:06:15.052Z,969.65
2023-11-05T12:09:22.525Z,969.71
2023-11-05T12:12:31.314Z,969.73
2023-11-05T12:15:37.920Z,969.76
2023-11-05T12:18:45.220Z,969.77
2023-11-05T12:21:52.735Z,969.84
2023-11-05T12:24:59.382Z,969.92
2023-11-05T12:28:06.651Z,970.05
2023-11-05T12:31:13.742Z,970.04
2023-11-05T12:34:22.627Z,970.03
2023-11-05T12:37:30.661Z,970.08
2023-11-05T12:40:37.713Z,970.10
2023-11-05T12:43:44.441Z,970.13
2023-11-05T12:46:51.921Z,970.19
2023-11-05T12:49:58.841Z,970.21
2023-11-05T12:53:05.864Z,970.29
2023-11-05T12:56:12.980Z,970.23
2023-11-05T12:59:19.970Z,970.36
2023-11-05T13:02:27.263Z,970.31
2023-11-05T13:05:34.272Z,970.30
2023-11-05T13:08:41.227Z,970.35
2023-11-05T13:11:48.218Z,970.37
2023-11-05T13:14:55.177Z,970.41
2023-11-05T13:18:02.533Z,970.47
2023-11-05T13:21:09.214Z,970.56
2023-11-05T13:24:16.710Z,970.68
2023-11-05T13:27:23.837Z,970.74
2023-11-05T13:30:30.560Z,970.70
2023-11-05T13:33:37.662Z,970.78
2023-11-05T13:36:44.784Z,970.96
2023-11-05T13:39:51.660Z,970.98
2023-11-05T13:42:59.002Z,970.93
2023-11-05T13:46:05.947Z,971.01
2023-11-05T13:49:13.546Z,971.07
2023-11-05T13:52:21.484Z,971.05
2023-11-05T13:55:28.615Z,970.98
2023-11-05T13:58:35.374Z,971.06
2023-11-05T14:01:42.438Z,971.06
2023-11-05T14:04:50.039Z,971.12
2023-11-05T14:07:56.707Z,971.15
2023-11-05T14:11:03.373Z,971.23
2023-11-05T14:14:10.274Z,971.27
2023-11-05T14:17:17.358Z,971.36
2023-11-05T14:20:24.049Z,971.42
2023-11-05T14:23:31.329Z,971.56
2023-11-05T14:26:38.167Z,971.49
2023-11-05T14:29:45.129Z,971.60
2023-11-05T14:32:52.686Z,971.63
2023-11-05T14:35:59.950Z,971.71
2023-11-05T14:39:07.221Z,971.70
2023-11-05T14:42:14.286Z,971.74
2023-11-05T14:45:27.558Z,971.76
2023-11-05T14:48:24.405Z,971.84
2023-11-05T14:51:31.198Z,971.89
2023-11-05T14:54:38.532Z,971.99
2023-11-05T14:57:45.260Z,972.03
2023-11-05T15:00:52.254Z,972.10
2023-11-05T15:03:59.660Z,972.09
2023-11-05T15:07:07.035Z,972.18
2023-11-05T15:10:14.331Z,972.21
2023-11-05T15:13:21.422Z,972.30
2023-11-05T15:16:28.614Z,972.38
2023-11-05T15:19:36.221Z,972.44
2023-11-05T15:22:43.563Z,972.58
2023-11-05T15:25:51.225Z,972.63
2023-11-05T15:28:58.749Z,972.67
2023-11-05T15:32:05.490Z,972.74
2023-11-05T15:35:12.769Z,972.73
2023-11-05T15:38:19.835Z,972.97
2023-11-05T15:41:27.000Z,972.93
2023-11-05T15:44:33.999Z,972.98
2023-11-05T15:47:40.881Z,973.04
2023-11-05T15:50:50.756Z,973.09
2023-11-05T15:53:57.916Z,973.17
2023-11-05T15:57:05.285Z,973.26
2023-11-05T16:00:12.332Z,973.37
2023-11-05T16:03:19.021Z,973.44
2023-11-05T16:06:26.294Z,973.47
2023-11-05T16:09:33.429Z,973.59
2023-11-05T16:12:40.889Z,973.64
2023-11-05T16:15:47.961Z,973.84
2023-11-05T16:18:54.664Z,973.77
2023-11-05T16:22:02.193Z,973.82
2023-11-05T16:25:09.014Z,973.90
2023-11-05T16:28:16.544Z,973.95
2023-11-05T16:31:23.503Z,974.06
2023-11-05T16:34:30.459Z,974.12
2023-11-05T16:37:37.909Z,974.17
2023-11-05T16:40:44.635Z,974.25
2023-11-05T16:43:51.703Z,974.31
2023-11-05T16:46:59.508Z,974.47
2023-11-05T16:50:06.220Z,974.54
2023-11-05T16:53:17.079Z,974.61
2023-11-05T16:56:13.899Z,974.70
2023-11-05T16:59:20.574Z,974.83
2023-11-05T17:02:28.224Z,974.90
2023-11-05T17:05:35.066Z,974.90
2023-11-05T17:08:42.008Z,975.03
2023-11-05T17:11:49.311Z,975.10
2023-11-05T17:14:56.416Z,975.16
2023-11-05T17:18:03.499Z,975.28
2023-11-05T17:21:10.604Z,975.38
2023-11-05T17:24:18.705Z,975.43
2023-11-05T17:27:26.293Z,975.49
2023-11-05T17:30:34.029Z,975.53
2023-11-05T17:33:41.025Z,975.65
2023-11-05T17:36:48.563Z,975.75
2023-11-05T17:39:55.745Z,975.82
2023-11-05T17:43:05.093Z,975.93
2023-11-05T17:46:03.717Z,976.01
2023-11-05T17:49:10.912Z,976.11
2023-11-05T17:52:18.496Z,976.19
2023-11-05T17:55:25.745Z,976.21
2023-11-05T17:58:32.911Z,976.28
2023-11-05T18:01:39.982Z,976.39
2023-11-05T18:04:47.616Z,976.49
2023-11-05T18:07:54.784Z,976.50
2023-11-05T18:11:02.181Z,976.49
2023-11-05T18:14:09.321Z,976.63
2023-11-05T18:17:16.321Z,976.68
2023-11-05T18:20:23.613Z,976.76
2023-11-05T18:23:30.714Z,976.81
2023-11-05T18:26:38.159Z,976.79
2023-11-05T18:29:45.526Z,976.84
2023-11-05T18:32:53.327Z,977.01
2023-11-05T18:36:00.263Z,977.10
2023-11-05T18:39:07.281Z,977.11
2023-11-05T18:42:14.710Z,977.21
2023-11-05T18:45:21.622Z,977.30
2023-11-05T18:48:29.345Z,977.36
2023-11-05T18:51:36.373Z,977.39
2023-11-05T18:54:43.409Z,977.43
2023-11-05T18:57:50.929Z,977.57
2023-11-05T19:00:57.903Z,977.69
2023-11-05T19:04:04.894Z,977.72
2023-11-05T19:07:12.801Z,977.81
2023-11-05T19:10:19.592Z,977.82
2023-11-05T19:13:27.660Z,977.90
2023-11-05T19:16:35.218Z,978.00
2023-11-05T19:19:42.435Z,978.05
2023-11-05T19:22:49.989Z,978.08
2023-11-05T19:25:57.470Z,977.97
2023-11-05T19:29:04.836Z,978.29
2023-11-05T19:32:12.716Z,978.51
2023-11-05T19:35:20.176Z,978.46
2023-11-05T19:38:27.042Z,978.56
2023-11-05T19:41:33.973Z,978.53
2023-11-05T19:44:41.374Z,978.61
2023-11-05T19:47:48.939Z,978.74
2023-11-05T19:50:56.818Z,978.77
2023-11-05T19:54:04.416Z,978.84
2023-11-05T19:57:12.365Z,979.07
2023-11-05T20:00:19.563Z,979.05
2023-11-05T20:03:27.424Z,979.26
2023-11-05T20:06:34.936Z,979.33
2023-11-05T20:09:42.165Z,979.44
2023-11-05T20:12:49.276Z,979.45
2023-11-05T20:15:56.797Z,979.58
2023-11-05T20:19:03.816Z,979.71
2023-11-05T20:22:11.237Z,979.78
2023-11-05T20:25:18.693Z,979.86
2023-11-05T20:28:26.166Z,979.94
2023-11-05T20:31:33.772Z,980.10
2023-11-05T20:34:41.030Z,980.01
2023-11-05T20:37:48.798Z,980.20
2023-11-05T20:40:56.277Z,980.22
2023-11-05T20:44:02.862Z,980.32
2023-11-05T20:47:10.451Z,980.35
2023-11-05T20:50:17.808Z,980.42
2023-11-05T20:53:24.922Z,980.52
2023-11-05T20:56:32.130Z,980.58
2023-11-05T20:59:39.853Z,980.57
2023-11-05T21:02:46.779Z,980.74
2023-11-05T21:05:53.900Z,980.91
2023-11-05T21:09:01.405Z,980.92
2023-11-05T21:12:08.117Z,981.01
2023-11-05T21:15:15.218Z,981.05
2023-11-05T21:18:23.046Z,981.15
2023-11-05T21:21:30.448Z,981.15
2023-11-05T21:24:38.590Z,981.11
2023-11-05T21:27:46.527Z,981.17
2023-11-05T21:30:54.565Z,981.22
2023-11-05T21:34:01.632Z,981.29
2023-11-05T21:37:09.397Z,981.43
2023-11-05T21:40:16.481Z,981.61
2023-11-05T21:43:23.581Z,981.66
2023-11-05T21:46:30.991Z,981.73
2023-11-05T21:49:38.462Z,981.76
2023-11-05T21:52:45.571Z,981.87
2023-11-05T21:55:52.829Z,981.84
2023-11-05T21:58:59.821Z,981.94
2023-11-05T22:02:07.061Z,982.05
2023-11-05T22:05:14.735Z,982.08
2023-11-05T22:08:22.355Z,982.09
2023-11-05T22:11:29.662Z,982.14
2023-11-05T22:14:37.256Z,982.21
2023-11-05T22:17:43.964Z,982.19
2023-11-05T22:20:54.181Z,982.23
2023-11-05T22:23:51.706Z,982.39
2023-11-05T22:26:58.797Z,982.44
2023-11-05T22:30:05.849Z,982.55
2023-11-05T22:33:12.831Z,982.59
2023-11-05T22:36:19.450Z,982.75
2023-11-05T22:39:26.751Z,982.86
2023-11-05T22:42:34.605Z,982.99
2023-11-05T22:45:41.153Z,983.03
2023-11-05T22:48:49.022Z,983.04
2023-11-05T22:51:56.018Z,983.17
2023-11-05T22:55:02.889Z,983.16
2023-11-05T22:58:09.888Z,983.22
2023-11-05T23:01:17.425Z,983.34
2023-11-05T23:04:25.093Z,983.40
2023-11-05T23:07:31.661Z,983.48
2023-11-05T23:10:38.766Z,983.53
2023-11-05T23:13:46.144Z,983.71
2023-11-05T23:16:54.052Z,983.78
2023-11-05T23:20:00.659Z,983.70
2023-11-05T23:23:08.006Z,983.74
2023-11-05T23:26:15.259Z,983.77
2023-11-05T23:29:22.724Z,983.80
2023-11-05T23:32:30.265Z,983.83
2023-11-05T23:35:37.633Z,983.89
2023-11-05T23:38:44.160Z,984.10
2023-11-05T23:41:52.341Z,984.05
2023-11-05T23:45:00.048Z,984.13
2023-11-05T23:48:07.336Z,984.19
2023-11-05T23:51:14.701Z,984.17
2023-11-05T23:54:21.990Z,984.22
2023-11-05T23:57:28.673Z,984.34
